PWSweather.com
Personal Weather Stations
Station Observations
ISARDEGN48
BittiIT 08021

BittiIT 08021

Lat: 40.4805, Lon: 9.3887

Elevation: 1804

Station Type: La Crosse WS2355

http://meteobitti.altervista.org

High Low Average
Temperature 71.4°F21.9°C 52.0°F11.1°C 62.7°F17.1°C
Dew Point 47.7°F8.7°C 42.2°F5.7°C 45.2°F7.3°C
Winds 15.2 mph 24.5 kmh Calm Calm 4.0 mph E6.4 kmh E
Wind Gusts 20.1 mph32.3 kmh -- 8.0 mph12.9 kmh
Humidity 72% 38% 54%
Pressure 30.94 in1047.7 mb 30.87 in1045.4 mb -
Precipitation 0.00 in0.0 mm - -
Hour Temp Dew Point Humidity Winds Wind Gusts Pressure Precip Precip Rate Daily Precip Total
12:00 AM 54.0°F12.2°C 43.2°F6.2°C 67% Calm Calm 3.1 mph5.0 kmh 30.94 in1047.7 mb 0.00 in0.0 mm 0.00 in0.0 mm 0.00 in0.0 mm
12:05 AM 53.8°F12.1°C 43.0°F6.1°C 67% Calm Calm 2.9 mph4.7 kmh 30.94 in1047.7 mb 0.00 in0.0 mm 0.00 in0.0 mm 0.00 in0.0 mm
12:10 AM 53.8°F12.1°C 43.0°F6.1°C 67% Calm Calm 2.9 mph4.7 kmh 30.94 in1047.7 mb 0.00 in0.0 mm 0.00 in0.0 mm 0.00 in0.0 mm
12:15 AM 53.4°F11.9°C 42.7°F5.9°C 67% 1.6 mph SW2.6 kmh SW 2.5 mph4.0 kmh 30.94 in1047.7 mb 0.00 in0.0 mm 0.00 in0.0 mm 0.00 in0.0 mm
12:20 AM 53.4°F11.9°C 43.1°F6.2°C 68% 1.3 mph SW2.1 kmh SW 2.7 mph4.3 kmh 30.94 in1047.7 mb 0.00 in0.0 mm 0.00 in0.0 mm 0.00 in0.0 mm
12:25 AM 53.4°F11.9°C 42.7°F5.9°C 67% 2.0 mph SW3.2 kmh SW 3.6 mph5.8 kmh 30.94 in1047.7 mb 0.00 in0.0 mm 0.00 in0.0 mm 0.00 in0.0 mm
12:30 AM 53.4°F11.9°C 42.7°F5.9°C 67% Calm Calm 3.6 mph5.8 kmh 30.94 in1047.7 mb 0.00 in0.0 mm 0.00 in0.0 mm 0.00 in0.0 mm
12:35 AM 53.4°F11.9°C 42.7°F5.9°C 67% 1.8 mph SW2.9 kmh SW 2.5 mph4.0 kmh 30.94 in1047.7 mb 0.00 in0.0 mm 0.00 in0.0 mm 0.00 in0.0 mm
12:40 AM 53.4°F11.9°C 42.7°F5.9°C 67% 2.9 mph SW4.7 kmh SW 3.6 mph5.8 kmh 30.93 in1047.4 mb 0.00 in0.0 mm 0.00 in0.0 mm 0.00 in0.0 mm
12:45 AM 53.2°F11.8°C 42.5°F5.8°C 67% 4.0 mph SW6.4 kmh SW 4.3 mph6.9 kmh 30.93 in1047.4 mb 0.00 in0.0 mm 0.00 in0.0 mm 0.00 in0.0 mm
12:50 AM 53.2°F11.8°C 42.5°F5.8°C 67% 3.4 mph SW5.5 kmh SW 4.3 mph6.9 kmh 30.93 in1047.4 mb 0.00 in0.0 mm 0.00 in0.0 mm 0.00 in0.0 mm
12:55 AM 53.2°F11.8°C 42.5°F5.8°C 67% 3.4 mph SW5.5 kmh SW 3.8 mph6.1 kmh 30.93 in1047.4 mb 0.00 in0.0 mm 0.00 in0.0 mm 0.00 in0.0 mm
01:00 AM 53.2°F11.8°C 42.5°F5.8°C 67% 2.2 mph SW3.5 kmh SW 3.6 mph5.8 kmh 30.93 in1047.4 mb 0.00 in0.0 mm 0.00 in0.0 mm 0.00 in0.0 mm
01:05 AM 52.9°F11.6°C 42.2°F5.7°C 67% 2.2 mph SW3.5 kmh SW 3.6 mph5.8 kmh 30.93 in1047.4 mb 0.00 in0.0 mm 0.00 in0.0 mm 0.00 in0.0 mm
01:10 AM 52.9°F11.6°C 42.6°F5.9°C 68% 3.8 mph SW6.1 kmh SW 5.6 mph9.0 kmh 30.93 in1047.4 mb 0.00 in0.0 mm 0.00 in0.0 mm 0.00 in0.0 mm
01:15 AM 52.9°F11.6°C 42.6°F5.9°C 68% 4.7 mph SW7.6 kmh SW 6.0 mph9.7 kmh 30.93 in1047.4 mb 0.00 in0.0 mm 0.00 in0.0 mm 0.00 in0.0 mm
01:20 AM 53.2°F11.8°C 42.9°F6.1°C 68% 2.0 mph SW3.2 kmh SW 6.0 mph9.7 kmh 30.93 in1047.4 mb 0.00 in0.0 mm 0.00 in0.0 mm 0.00 in0.0 mm
01:25 AM 53.2°F11.8°C 42.9°F6.1°C 68% 1.3 mph SW2.1 kmh SW 5.1 mph8.2 kmh 30.93 in1047.4 mb 0.00 in0.0 mm 0.00 in0.0 mm 0.00 in0.0 mm
01:30 AM 53.2°F11.8°C 42.9°F6.1°C 68% 1.8 mph SW2.9 kmh SW 3.8 mph6.1 kmh 30.93 in1047.4 mb 0.00 in0.0 mm 0.00 in0.0 mm 0.00 in0.0 mm
01:35 AM 53.2°F11.8°C 42.9°F6.1°C 68% Calm Calm 2.5 mph4.0 kmh 30.93 in1047.4 mb 0.00 in0.0 mm 0.00 in0.0 mm 0.00 in0.0 mm
01:40 AM 53.2°F11.8°C 42.9°F6.1°C 68% 2.5 mph SW4.0 kmh SW 3.1 mph5.0 kmh 30.93 in1047.4 mb 0.00 in0.0 mm 0.00 in0.0 mm 0.00 in0.0 mm
01:45 AM 53.2°F11.8°C 42.9°F6.1°C 68% 1.3 mph SW2.1 kmh SW 3.1 mph5.0 kmh 30.93 in1047.4 mb 0.00 in0.0 mm 0.00 in0.0 mm 0.00 in0.0 mm
01:50 AM 53.2°F11.8°C 43.3°F6.3°C 69% 2.0 mph SW3.2 kmh SW 2.9 mph4.7 kmh 30.93 in1047.4 mb 0.00 in0.0 mm 0.00 in0.0 mm 0.00 in0.0 mm
01:55 AM 53.2°F11.8°C 43.3°F6.3°C 69% 1.3 mph SW2.1 kmh SW 2.9 mph4.7 kmh 30.92 in1047.1 mb 0.00 in0.0 mm 0.00 in0.0 mm 0.00 in0.0 mm
02:00 AM 53.2°F11.8°C 43.3°F6.3°C 69% Calm Calm 2.5 mph4.0 kmh 30.92 in1047.1 mb 0.00 in0.0 mm 0.00 in0.0 mm 0.00 in0.0 mm
02:05 AM 53.2°F11.8°C 43.3°F6.3°C 69% 1.8 mph SW2.9 kmh SW 3.4 mph5.5 kmh 30.92 in1047.1 mb 0.00 in0.0 mm 0.00 in0.0 mm 0.00 in0.0 mm
02:10 AM 52.9°F11.6°C 43.4°F6.3°C 70% Calm Calm 3.4 mph5.5 kmh 30.92 in1047.1 mb 0.00 in0.0 mm 0.00 in0.0 mm 0.00 in0.0 mm
02:15 AM 52.9°F11.6°C 43.4°F6.3°C 70% Calm Calm 3.4 mph5.5 kmh 30.92 in1047.1 mb 0.00 in0.0 mm 0.00 in0.0 mm 0.00 in0.0 mm
02:20 AM 52.5°F11.4°C 43.1°F6.2°C 70% Calm Calm -- 30.92 in1047.1 mb 0.00 in0.0 mm 0.00 in0.0 mm 0.00 in0.0 mm
02:25 AM 52.3°F11.3°C 43.3°F6.3°C 71% 1.8 mph SW2.9 kmh SW 1.8 mph2.9 kmh 30.92 in1047.1 mb 0.00 in0.0 mm 0.00 in0.0 mm 0.00 in0.0 mm
02:30 AM 52.3°F11.3°C 43.3°F6.3°C 71% 2.2 mph SW3.5 kmh SW 3.4 mph5.5 kmh 30.92 in1047.1 mb 0.00 in0.0 mm 0.00 in0.0 mm 0.00 in0.0 mm
02:35 AM 52.3°F11.3°C 43.6°F6.4°C 72% 2.0 mph SW3.2 kmh SW 3.4 mph5.5 kmh 30.92 in1047.1 mb 0.00 in0.0 mm 0.00 in0.0 mm 0.00 in0.0 mm
02:40 AM 52.3°F11.3°C 43.6°F6.4°C 72% 2.0 mph SW3.2 kmh SW 3.1 mph5.0 kmh 30.92 in1047.1 mb 0.00 in0.0 mm 0.00 in0.0 mm 0.00 in0.0 mm
02:45 AM 52.3°F11.3°C 43.6°F6.4°C 72% Calm Calm 3.1 mph5.0 kmh 30.92 in1047.1 mb 0.00 in0.0 mm 0.00 in0.0 mm 0.00 in0.0 mm
02:50 AM 52.3°F11.3°C 43.6°F6.4°C 72% 2.9 mph SW4.7 kmh SW 3.6 mph5.8 kmh 30.92 in1047.1 mb 0.00 in0.0 mm 0.00 in0.0 mm 0.00 in0.0 mm
02:55 AM 52.3°F11.3°C 43.6°F6.4°C 72% 3.8 mph SW6.1 kmh SW 3.8 mph6.1 kmh 30.92 in1047.1 mb 0.00 in0.0 mm 0.00 in0.0 mm 0.00 in0.0 mm
03:00 AM 52.3°F11.3°C 43.6°F6.4°C 72% 3.1 mph SW5.0 kmh SW 3.8 mph6.1 kmh 30.92 in1047.1 mb 0.00 in0.0 mm 0.00 in0.0 mm 0.00 in0.0 mm
03:05 AM 52.2°F11.2°C 43.4°F6.3°C 72% 3.8 mph SW6.1 kmh SW 4.0 mph6.4 kmh 30.92 in1047.1 mb 0.00 in0.0 mm 0.00 in0.0 mm 0.00 in0.0 mm
03:10 AM 52.3°F11.3°C 43.6°F6.4°C 72% 3.1 mph SW5.0 kmh SW 4.3 mph6.9 kmh 30.92 in1047.1 mb 0.00 in0.0 mm 0.00 in0.0 mm 0.00 in0.0 mm
03:15 AM 52.5°F11.4°C 43.4°F6.3°C 71% 3.6 mph SW5.8 kmh SW 4.3 mph6.9 kmh 30.92 in1047.1 mb 0.00 in0.0 mm 0.00 in0.0 mm 0.00 in0.0 mm
03:20 AM 52.5°F11.4°C 43.4°F6.3°C 71% 3.6 mph SW5.8 kmh SW 4.3 mph6.9 kmh 30.92 in1047.1 mb 0.00 in0.0 mm 0.00 in0.0 mm 0.00 in0.0 mm
03:25 AM 52.3°F11.3°C 43.3°F6.3°C 71% 3.1 mph SW5.0 kmh SW 4.5 mph7.2 kmh 30.92 in1047.1 mb 0.00 in0.0 mm 0.00 in0.0 mm 0.00 in0.0 mm
03:30 AM 52.3°F11.3°C 43.3°F6.3°C 71% 4.0 mph SW6.4 kmh SW 4.5 mph7.2 kmh 30.91 in1046.7 mb 0.00 in0.0 mm 0.00 in0.0 mm 0.00 in0.0 mm
03:35 AM 52.2°F11.2°C 43.1°F6.2°C 71% 3.6 mph SW5.8 kmh SW 4.5 mph7.2 kmh 30.91 in1046.7 mb 0.00 in0.0 mm 0.00 in0.0 mm 0.00 in0.0 mm
03:40 AM 52.0°F11.1°C 42.9°F6.1°C 71% 2.2 mph SW3.5 kmh SW 4.3 mph6.9 kmh 30.91 in1046.7 mb 0.00 in0.0 mm 0.00 in0.0 mm 0.00 in0.0 mm
03:45 AM 52.0°F11.1°C 42.9°F6.1°C 71% 3.1 mph SW5.0 kmh SW 4.3 mph6.9 kmh 30.91 in1046.7 mb 0.00 in0.0 mm 0.00 in0.0 mm 0.00 in0.0 mm
03:50 AM 52.0°F11.1°C 42.9°F6.1°C 71% 3.6 mph SW5.8 kmh SW 4.5 mph7.2 kmh 30.91 in1046.7 mb 0.00 in0.0 mm 0.00 in0.0 mm 0.00 in0.0 mm
03:55 AM 52.0°F11.1°C 42.9°F6.1°C 71% 4.5 mph SW7.2 kmh SW 5.1 mph8.2 kmh 30.91 in1046.7 mb 0.00 in0.0 mm 0.00 in0.0 mm 0.00 in0.0 mm
04:00 AM 52.0°F11.1°C 42.9°F6.1°C 71% 2.9 mph SW4.7 kmh SW 5.1 mph8.2 kmh 30.91 in1046.7 mb 0.00 in0.0 mm 0.00 in0.0 mm 0.00 in0.0 mm
04:05 AM 52.0°F11.1°C 42.9°F6.1°C 71% 3.6 mph SW5.8 kmh SW 5.4 mph8.7 kmh 30.91 in1046.7 mb 0.00 in0.0 mm 0.00 in0.0 mm 0.00 in0.0 mm
04:10 AM 52.2°F11.2°C 43.1°F6.2°C 71% 3.6 mph SW5.8 kmh SW 5.4 mph8.7 kmh 30.91 in1046.7 mb 0.00 in0.0 mm 0.00 in0.0 mm 0.00 in0.0 mm
04:15 AM 52.3°F11.3°C 42.9°F6.1°C 70% 3.1 mph SW5.0 kmh SW 4.9 mph7.9 kmh 30.91 in1046.7 mb 0.00 in0.0 mm 0.00 in0.0 mm 0.00 in0.0 mm
04:20 AM 52.2°F11.2°C 42.8°F6.0°C 70% 0.7 mph SW1.1 kmh SW 4.5 mph7.2 kmh 30.91 in1046.7 mb 0.00 in0.0 mm 0.00 in0.0 mm 0.00 in0.0 mm
04:25 AM 52.2°F11.2°C 43.1°F6.2°C 71% 1.3 mph SW2.1 kmh SW 4.3 mph6.9 kmh 30.91 in1046.7 mb 0.00 in0.0 mm 0.00 in0.0 mm 0.00 in0.0 mm
04:30 AM 52.2°F11.2°C 43.1°F6.2°C 71% Calm Calm 3.1 mph5.0 kmh 30.91 in1046.7 mb 0.00 in0.0 mm 0.00 in0.0 mm 0.00 in0.0 mm
04:35 AM 52.2°F11.2°C 43.1°F6.2°C 71% 4.5 mph SW7.2 kmh SW 4.5 mph7.2 kmh 30.91 in1046.7 mb 0.00 in0.0 mm 0.00 in0.0 mm 0.00 in0.0 mm
04:40 AM 52.2°F11.2°C 43.1°F6.2°C 71% 4.9 mph SW7.9 kmh SW 4.9 mph7.9 kmh 30.92 in1047.1 mb 0.00 in0.0 mm 0.00 in0.0 mm 0.00 in0.0 mm
04:45 AM 52.3°F11.3°C 42.9°F6.1°C 70% Calm Calm 5.8 mph9.3 kmh 30.91 in1046.7 mb 0.00 in0.0 mm 0.00 in0.0 mm 0.00 in0.0 mm
04:50 AM 52.3°F11.3°C 42.9°F6.1°C 70% 2.0 mph SSW3.2 kmh SSW 5.8 mph9.3 kmh 30.92 in1047.1 mb 0.00 in0.0 mm 0.00 in0.0 mm 0.00 in0.0 mm
04:55 AM 52.3°F11.3°C 42.9°F6.1°C 70% 2.2 mph SW3.5 kmh SW 4.3 mph6.9 kmh 30.91 in1046.7 mb 0.00 in0.0 mm 0.00 in0.0 mm 0.00 in0.0 mm
05:00 AM 52.5°F11.4°C 43.1°F6.2°C 70% Calm Calm 4.3 mph6.9 kmh 30.91 in1046.7 mb 0.00 in0.0 mm 0.00 in0.0 mm 0.00 in0.0 mm
05:05 AM 52.5°F11.4°C 43.1°F6.2°C 70% 2.5 mph SW4.0 kmh SW 3.8 mph6.1 kmh 30.91 in1046.7 mb 0.00 in0.0 mm 0.00 in0.0 mm 0.00 in0.0 mm
05:10 AM 52.3°F11.3°C 43.3°F6.3°C 71% Calm Calm 3.8 mph6.1 kmh 30.91 in1046.7 mb 0.00 in0.0 mm 0.00 in0.0 mm 0.00 in0.0 mm
05:15 AM 52.3°F11.3°C 43.3°F6.3°C 71% 3.1 mph SW5.0 kmh SW 3.6 mph5.8 kmh 30.91 in1046.7 mb 0.00 in0.0 mm 0.00 in0.0 mm 0.00 in0.0 mm
05:20 AM 52.3°F11.3°C 43.3°F6.3°C 71% Calm Calm 3.6 mph5.8 kmh 30.91 in1046.7 mb 0.00 in0.0 mm 0.00 in0.0 mm 0.00 in0.0 mm
05:25 AM 52.3°F11.3°C 43.3°F6.3°C 71% 2.0 mph SSW3.2 kmh SSW 3.1 mph5.0 kmh 30.91 in1046.7 mb 0.00 in0.0 mm 0.00 in0.0 mm 0.00 in0.0 mm
05:30 AM 52.9°F11.6°C 43.8°F6.6°C 71% 1.1 mph SSW1.8 kmh SSW 2.5 mph4.0 kmh 30.92 in1047.1 mb 0.00 in0.0 mm 0.00 in0.0 mm 0.00 in0.0 mm
05:35 AM 53.2°F11.8°C 44.1°F6.7°C 71% 2.9 mph SW4.7 kmh SW 2.9 mph4.7 kmh 30.92 in1047.1 mb 0.00 in0.0 mm 0.00 in0.0 mm 0.00 in0.0 mm
05:40 AM 53.4°F11.9°C 44.2°F6.8°C 71% Calm Calm 3.1 mph5.0 kmh 30.92 in1047.1 mb 0.00 in0.0 mm 0.00 in0.0 mm 0.00 in0.0 mm
05:45 AM 53.8°F12.1°C 44.6°F7.0°C 71% 1.6 mph SW2.6 kmh SW 3.1 mph5.0 kmh 30.92 in1047.1 mb 0.00 in0.0 mm 0.00 in0.0 mm 0.00 in0.0 mm
05:50 AM 54.3°F12.4°C 44.8°F7.1°C 70% Calm Calm 2.2 mph3.5 kmh 30.92 in1047.1 mb 0.00 in0.0 mm 0.00 in0.0 mm 0.00 in0.0 mm
05:55 AM 54.7°F12.6°C 45.1°F7.3°C 70% 1.8 mph SW2.9 kmh SW 3.1 mph5.0 kmh 30.92 in1047.1 mb 0.00 in0.0 mm 0.00 in0.0 mm 0.00 in0.0 mm
06:00 AM 54.7°F12.6°C 44.7°F7.1°C 69% 2.5 mph SSW4.0 kmh SSW 3.1 mph5.0 kmh 30.92 in1047.1 mb 0.00 in0.0 mm 0.00 in0.0 mm 0.00 in0.0 mm
06:05 AM 55.2°F12.9°C 45.3°F7.4°C 69% Calm Calm 3.8 mph6.1 kmh 30.92 in1047.1 mb 0.00 in0.0 mm 0.00 in0.0 mm 0.00 in0.0 mm
06:10 AM 55.9°F13.3°C 45.1°F7.3°C 67% 0.9 mph S1.4 kmh S 3.8 mph6.1 kmh 30.92 in1047.1 mb 0.00 in0.0 mm 0.00 in0.0 mm 0.00 in0.0 mm
06:15 AM 56.8°F13.8°C 46.0°F7.8°C 67% 0.9 mph SSE1.4 kmh SSE 2.5 mph4.0 kmh 30.92 in1047.1 mb 0.00 in0.0 mm 0.00 in0.0 mm 0.00 in0.0 mm
06:20 AM 57.9°F14.4°C 46.2°F7.9°C 65% Calm Calm 2.7 mph4.3 kmh 30.92 in1047.1 mb 0.00 in0.0 mm 0.00 in0.0 mm 0.00 in0.0 mm
06:25 AM 59.0°F15.0°C 46.8°F8.2°C 64% Calm Calm 2.7 mph4.3 kmh 30.92 in1047.1 mb 0.00 in0.0 mm 0.00 in0.0 mm 0.00 in0.0 mm
06:30 AM 59.9°F15.5°C 46.9°F8.3°C 62% 2.2 mph E3.5 kmh E 3.4 mph5.5 kmh 30.92 in1047.1 mb 0.00 in0.0 mm 0.00 in0.0 mm 0.00 in0.0 mm
06:35 AM 60.1°F15.6°C 46.2°F7.9°C 60% Calm Calm 3.4 mph5.5 kmh 30.92 in1047.1 mb 0.00 in0.0 mm 0.00 in0.0 mm 0.00 in0.0 mm
06:40 AM 60.6°F15.9°C 46.8°F8.2°C 60% 1.6 mph E2.6 kmh E 3.4 mph5.5 kmh 30.92 in1047.1 mb 0.00 in0.0 mm 0.00 in0.0 mm 0.00 in0.0 mm
06:45 AM 60.8°F16.0°C 46.0°F7.8°C 58% 1.3 mph NNE2.1 kmh NNE 3.4 mph5.5 kmh 30.92 in1047.1 mb 0.00 in0.0 mm 0.00 in0.0 mm 0.00 in0.0 mm
06:50 AM 61.0°F16.1°C 45.6°F7.6°C 57% Calm Calm 3.4 mph5.5 kmh 30.92 in1047.1 mb 0.00 in0.0 mm 0.00 in0.0 mm 0.00 in0.0 mm
06:55 AM 61.3°F16.3°C 46.5°F8.1°C 58% Calm Calm 2.5 mph4.0 kmh 30.92 in1047.1 mb 0.00 in0.0 mm 0.00 in0.0 mm 0.00 in0.0 mm
07:00 AM 61.5°F16.4°C 46.6°F8.1°C 58% Calm Calm 2.0 mph3.2 kmh 30.92 in1047.1 mb 0.00 in0.0 mm 0.00 in0.0 mm 0.00 in0.0 mm
07:05 AM 61.7°F16.5°C 46.8°F8.2°C 58% 2.0 mph SSE3.2 kmh SSE 2.2 mph3.5 kmh 30.92 in1047.1 mb 0.00 in0.0 mm 0.00 in0.0 mm 0.00 in0.0 mm
07:10 AM 62.2°F16.8°C 46.8°F8.2°C 57% 1.8 mph SSE2.9 kmh SSE 2.2 mph3.5 kmh 30.92 in1047.1 mb 0.00 in0.0 mm 0.00 in0.0 mm 0.00 in0.0 mm
07:15 AM 62.2°F16.8°C 45.8°F7.7°C 55% 1.3 mph S2.1 kmh S 3.6 mph5.8 kmh 30.92 in1047.1 mb 0.00 in0.0 mm 0.00 in0.0 mm 0.00 in0.0 mm
07:20 AM 61.9°F16.6°C 45.5°F7.5°C 55% 4.3 mph SW6.9 kmh SW 5.4 mph8.7 kmh 30.92 in1047.1 mb 0.00 in0.0 mm 0.00 in0.0 mm 0.00 in0.0 mm
07:25 AM 61.9°F16.6°C 46.0°F7.8°C 56% 0.9 mph WNW1.4 kmh WNW 5.4 mph8.7 kmh 30.92 in1047.1 mb 0.00 in0.0 mm 0.00 in0.0 mm 0.00 in0.0 mm
07:30 AM 62.4°F16.9°C 46.5°F8.1°C 56% Calm Calm 4.3 mph6.9 kmh 30.92 in1047.1 mb 0.00 in0.0 mm 0.00 in0.0 mm 0.00 in0.0 mm
07:35 AM 63.1°F17.3°C 47.1°F8.4°C 56% 2.2 mph ENE3.5 kmh ENE 2.5 mph4.0 kmh 30.92 in1047.1 mb 0.00 in0.0 mm 0.00 in0.0 mm 0.00 in0.0 mm
07:40 AM 63.3°F17.4°C 46.8°F8.2°C 55% 1.6 mph E2.6 kmh E 2.7 mph4.3 kmh 30.92 in1047.1 mb 0.00 in0.0 mm 0.00 in0.0 mm 0.00 in0.0 mm
07:45 AM 63.7°F17.6°C 47.1°F8.4°C 55% Calm Calm 2.7 mph4.3 kmh 30.92 in1047.1 mb 0.00 in0.0 mm 0.00 in0.0 mm 0.00 in0.0 mm
07:50 AM 64.2°F17.9°C 47.6°F8.7°C 55% Calm Calm 2.9 mph4.7 kmh 30.92 in1047.1 mb 0.00 in0.0 mm 0.00 in0.0 mm 0.00 in0.0 mm
07:55 AM 64.0°F17.8°C 47.4°F8.6°C 55% 1.6 mph ENE2.6 kmh ENE 4.5 mph7.2 kmh 30.92 in1047.1 mb 0.00 in0.0 mm 0.00 in0.0 mm 0.00 in0.0 mm
08:00 AM 64.0°F17.8°C 47.4°F8.6°C 55% 1.1 mph ENE1.8 kmh ENE 4.5 mph7.2 kmh 30.92 in1047.1 mb 0.00 in0.0 mm 0.00 in0.0 mm 0.00 in0.0 mm
08:05 AM 64.2°F17.9°C 47.6°F8.7°C 55% Calm Calm 3.8 mph6.1 kmh 30.92 in1047.1 mb 0.00 in0.0 mm 0.00 in0.0 mm 0.00 in0.0 mm
08:10 AM 64.2°F17.9°C 47.6°F8.7°C 55% 1.6 mph E2.6 kmh E 5.1 mph8.2 kmh 30.92 in1047.1 mb 0.00 in0.0 mm 0.00 in0.0 mm 0.00 in0.0 mm
08:15 AM 64.0°F17.8°C 47.4°F8.6°C 55% 1.6 mph E2.6 kmh E 5.1 mph8.2 kmh 30.92 in1047.1 mb 0.00 in0.0 mm 0.00 in0.0 mm 0.00 in0.0 mm
08:20 AM 64.2°F17.9°C 47.6°F8.7°C 55% Calm Calm 5.1 mph8.2 kmh 30.92 in1047.1 mb 0.00 in0.0 mm 0.00 in0.0 mm 0.00 in0.0 mm
08:25 AM 64.6°F18.1°C 47.4°F8.6°C 54% 2.9 mph NNE4.7 kmh NNE 4.9 mph7.9 kmh 30.92 in1047.1 mb 0.00 in0.0 mm 0.00 in0.0 mm 0.00 in0.0 mm
08:30 AM 64.2°F17.9°C 46.6°F8.1°C 53% 3.6 mph E5.8 kmh E 6.7 mph10.8 kmh 30.92 in1047.1 mb 0.00 in0.0 mm 0.00 in0.0 mm 0.00 in0.0 mm
08:35 AM 64.2°F17.9°C 47.1°F8.4°C 54% Calm Calm 6.7 mph10.8 kmh 30.92 in1047.1 mb 0.00 in0.0 mm 0.00 in0.0 mm 0.00 in0.0 mm
08:40 AM 64.8°F18.2°C 47.6°F8.7°C 54% 2.5 mph NE4.0 kmh NE 5.8 mph9.3 kmh 30.93 in1047.4 mb 0.00 in0.0 mm 0.00 in0.0 mm 0.00 in0.0 mm
08:45 AM 64.9°F18.3°C 46.8°F8.2°C 52% 4.7 mph NE7.6 kmh NE 8.1 mph13.0 kmh 30.93 in1047.4 mb 0.00 in0.0 mm 0.00 in0.0 mm 0.00 in0.0 mm
08:50 AM 64.9°F18.3°C 46.8°F8.2°C 52% 7.6 mph NNE12.2 kmh NNE 13.6 mph21.9 kmh 30.93 in1047.4 mb 0.00 in0.0 mm 0.00 in0.0 mm 0.00 in0.0 mm
08:55 AM 64.8°F18.2°C 47.1°F8.4°C 53% Calm Calm 13.6 mph21.9 kmh 30.93 in1047.4 mb 0.00 in0.0 mm 0.00 in0.0 mm 0.00 in0.0 mm
09:00 AM 64.9°F18.3°C 46.3°F7.9°C 51% 2.2 mph NE3.5 kmh NE 14.1 mph22.7 kmh 30.93 in1047.4 mb 0.00 in0.0 mm 0.00 in0.0 mm 0.00 in0.0 mm
09:05 AM 64.9°F18.3°C 46.3°F7.9°C 51% 9.8 mph NE15.8 kmh NE 14.1 mph22.7 kmh 30.93 in1047.4 mb 0.00 in0.0 mm 0.00 in0.0 mm 0.00 in0.0 mm
09:10 AM 64.9°F18.3°C 47.3°F8.5°C 53% 3.4 mph NE5.5 kmh NE 13.2 mph21.2 kmh 30.93 in1047.4 mb 0.00 in0.0 mm 0.00 in0.0 mm 0.00 in0.0 mm
09:15 AM 65.3°F18.5°C 47.7°F8.7°C 53% 5.4 mph NNE8.7 kmh NNE 13.2 mph21.2 kmh 30.93 in1047.4 mb 0.00 in0.0 mm 0.00 in0.0 mm 0.00 in0.0 mm
09:20 AM 65.5°F18.6°C 47.4°F8.6°C 52% 6.0 mph NNE9.7 kmh NNE 8.3 mph13.4 kmh 30.93 in1047.4 mb 0.00 in0.0 mm 0.00 in0.0 mm 0.00 in0.0 mm
09:25 AM 65.1°F18.4°C 46.0°F7.8°C 50% 4.7 mph NNE7.6 kmh NNE 11.6 mph18.7 kmh 30.93 in1047.4 mb 0.00 in0.0 mm 0.00 in0.0 mm 0.00 in0.0 mm
09:30 AM 65.5°F18.6°C 47.4°F8.6°C 52% 6.0 mph NNE9.7 kmh NNE 11.6 mph18.7 kmh 30.93 in1047.4 mb 0.00 in0.0 mm 0.00 in0.0 mm 0.00 in0.0 mm
09:35 AM 65.3°F18.5°C 47.2°F8.4°C 52% 3.1 mph NNE5.0 kmh NNE 8.5 mph13.7 kmh 30.93 in1047.4 mb 0.00 in0.0 mm 0.00 in0.0 mm 0.00 in0.0 mm
09:40 AM 65.5°F18.6°C 46.4°F8.0°C 50% 5.8 mph NE9.3 kmh NE 11.0 mph17.7 kmh 30.93 in1047.4 mb 0.00 in0.0 mm 0.00 in0.0 mm 0.00 in0.0 mm
09:45 AM 65.5°F18.6°C 46.9°F8.3°C 51% 5.4 mph NE8.7 kmh NE 11.6 mph18.7 kmh 30.93 in1047.4 mb 0.00 in0.0 mm 0.00 in0.0 mm 0.00 in0.0 mm
09:50 AM 65.8°F18.8°C 46.2°F7.9°C 49% 10.3 mph NE16.6 kmh NE 14.5 mph23.3 kmh 30.93 in1047.4 mb 0.00 in0.0 mm 0.00 in0.0 mm 0.00 in0.0 mm
09:55 AM 65.1°F18.4°C 46.0°F7.8°C 50% 6.0 mph NNE9.7 kmh NNE 14.5 mph23.3 kmh 30.93 in1047.4 mb 0.00 in0.0 mm 0.00 in0.0 mm 0.00 in0.0 mm
10:00 AM 64.9°F18.3°C 44.7°F7.1°C 48% 6.5 mph NE10.5 kmh NE 14.3 mph23.0 kmh 30.93 in1047.4 mb 0.00 in0.0 mm 0.00 in0.0 mm 0.00 in0.0 mm
10:05 AM 65.1°F18.4°C 46.0°F7.8°C 50% 5.4 mph NE8.7 kmh NE 14.3 mph23.0 kmh 30.93 in1047.4 mb 0.00 in0.0 mm 0.00 in0.0 mm 0.00 in0.0 mm
10:10 AM 65.5°F18.6°C 44.0°F6.7°C 46% 10.3 mph NE16.6 kmh NE 19.5 mph31.4 kmh 30.94 in1047.7 mb 0.00 in0.0 mm 0.00 in0.0 mm 0.00 in0.0 mm
10:15 AM 66.0°F18.9°C 44.6°F7.0°C 46% 11.9 mph NNE19.2 kmh NNE 20.1 mph32.3 kmh 30.94 in1047.7 mb 0.00 in0.0 mm 0.00 in0.0 mm 0.00 in0.0 mm
10:20 AM 66.0°F18.9°C 45.8°F7.7°C 48% 10.5 mph NNE16.9 kmh NNE 20.1 mph32.3 kmh 30.94 in1047.7 mb 0.00 in0.0 mm 0.00 in0.0 mm 0.00 in0.0 mm
10:25 AM 66.4°F19.1°C 46.7°F8.2°C 49% 2.5 mph NNE4.0 kmh NNE 16.6 mph26.7 kmh 30.93 in1047.4 mb 0.00 in0.0 mm 0.00 in0.0 mm 0.00 in0.0 mm
10:30 AM 66.7°F19.3°C 47.0°F8.3°C 49% 4.9 mph NE7.9 kmh NE 10.5 mph16.9 kmh 30.94 in1047.7 mb 0.00 in0.0 mm 0.00 in0.0 mm 0.00 in0.0 mm
10:35 AM 66.7°F19.3°C 46.4°F8.0°C 48% 2.2 mph NNE3.5 kmh NNE 11.6 mph18.7 kmh 30.94 in1047.7 mb 0.00 in0.0 mm 0.00 in0.0 mm 0.00 in0.0 mm
10:40 AM 66.9°F19.4°C 46.6°F8.1°C 48% 7.4 mph NNE11.9 kmh NNE 11.6 mph18.7 kmh 30.94 in1047.7 mb 0.00 in0.0 mm 0.00 in0.0 mm 0.00 in0.0 mm
10:45 AM 67.3°F19.6°C 46.9°F8.3°C 48% 10.5 mph NE16.9 kmh NE 11.4 mph18.3 kmh 30.94 in1047.7 mb 0.00 in0.0 mm 0.00 in0.0 mm 0.00 in0.0 mm
10:50 AM 67.3°F19.6°C 46.3°F7.9°C 47% 8.5 mph NE13.7 kmh NE 14.3 mph23.0 kmh 30.94 in1047.7 mb 0.00 in0.0 mm 0.00 in0.0 mm 0.00 in0.0 mm
10:55 AM 67.8°F19.9°C 46.8°F8.2°C 47% 9.8 mph NE15.8 kmh NE 14.3 mph23.0 kmh 30.94 in1047.7 mb 0.00 in0.0 mm 0.00 in0.0 mm 0.00 in0.0 mm
11:00 AM 67.6°F19.8°C 46.0°F7.8°C 46% 6.5 mph NE10.5 kmh NE 12.3 mph19.8 kmh 30.94 in1047.7 mb 0.00 in0.0 mm 0.00 in0.0 mm 0.00 in0.0 mm
11:05 AM 67.3°F19.6°C 46.9°F8.3°C 48% 2.2 mph NE3.5 kmh NE 12.3 mph19.8 kmh 30.94 in1047.7 mb 0.00 in0.0 mm 0.00 in0.0 mm 0.00 in0.0 mm
11:10 AM 67.8°F19.9°C 46.2°F7.9°C 46% 5.8 mph NE9.3 kmh NE 11.9 mph19.2 kmh 30.94 in1047.7 mb 0.00 in0.0 mm 0.00 in0.0 mm 0.00 in0.0 mm
11:15 AM 68.5°F20.3°C 45.7°F7.6°C 44% 3.1 mph NE5.0 kmh NE 11.9 mph19.2 kmh 30.94 in1047.7 mb 0.00 in0.0 mm 0.00 in0.0 mm 0.00 in0.0 mm
11:20 AM 68.2°F20.1°C 45.9°F7.7°C 45% 7.4 mph NE11.9 kmh NE 10.5 mph16.9 kmh 30.94 in1047.7 mb 0.00 in0.0 mm 0.00 in0.0 mm 0.00 in0.0 mm
11:25 AM 68.5°F20.3°C 46.3°F7.9°C 45% 5.4 mph NE8.7 kmh NE 10.5 mph16.9 kmh 30.94 in1047.7 mb 0.00 in0.0 mm 0.00 in0.0 mm 0.00 in0.0 mm
11:30 AM 68.7°F20.4°C 46.4°F8.0°C 45% 2.5 mph NE4.0 kmh NE 9.6 mph15.4 kmh 30.94 in1047.7 mb 0.00 in0.0 mm 0.00 in0.0 mm 0.00 in0.0 mm
11:35 AM 68.2°F20.1°C 45.9°F7.7°C 45% 6.7 mph NE10.8 kmh NE 14.5 mph23.3 kmh 30.94 in1047.7 mb 0.00 in0.0 mm 0.00 in0.0 mm 0.00 in0.0 mm
11:40 AM 68.4°F20.2°C 46.1°F7.8°C 45% 8.1 mph NE13.0 kmh NE 14.5 mph23.3 kmh 30.94 in1047.7 mb 0.00 in0.0 mm 0.00 in0.0 mm 0.00 in0.0 mm
11:45 AM 68.7°F20.4°C 46.4°F8.0°C 45% 6.9 mph NE11.1 kmh NE 14.3 mph23.0 kmh 30.94 in1047.7 mb 0.00 in0.0 mm 0.00 in0.0 mm 0.00 in0.0 mm
11:50 AM 68.7°F20.4°C 46.4°F8.0°C 45% 1.6 mph NE2.6 kmh NE 11.9 mph19.2 kmh 30.94 in1047.7 mb 0.00 in0.0 mm 0.00 in0.0 mm 0.00 in0.0 mm
11:55 AM 68.9°F20.5°C 46.0°F7.8°C 44% 3.1 mph NE5.0 kmh NE 13.2 mph21.2 kmh 30.94 in1047.7 mb 0.00 in0.0 mm 0.00 in0.0 mm 0.00 in0.0 mm
12:00 PM 69.1°F20.6°C 46.1°F7.8°C 44% 8.5 mph NE13.7 kmh NE 13.2 mph21.2 kmh 30.93 in1047.4 mb 0.00 in0.0 mm 0.00 in0.0 mm 0.00 in0.0 mm
12:05 PM 68.9°F20.5°C 46.0°F7.8°C 44% 9.2 mph NE14.8 kmh NE 13.0 mph20.9 kmh 30.93 in1047.4 mb 0.00 in0.0 mm 0.00 in0.0 mm 0.00 in0.0 mm
12:10 PM 68.9°F20.5°C 46.0°F7.8°C 44% 2.9 mph NE4.7 kmh NE 13.0 mph20.9 kmh 30.93 in1047.4 mb 0.00 in0.0 mm 0.00 in0.0 mm 0.00 in0.0 mm
12:15 PM 69.3°F20.7°C 45.7°F7.6°C 43% 13.0 mph NE20.9 kmh NE 14.3 mph23.0 kmh 30.93 in1047.4 mb 0.00 in0.0 mm 0.00 in0.0 mm 0.00 in0.0 mm
12:20 PM 68.9°F20.5°C 45.4°F7.4°C 43% 3.1 mph NE5.0 kmh NE 14.3 mph23.0 kmh 30.93 in1047.4 mb 0.00 in0.0 mm 0.00 in0.0 mm 0.00 in0.0 mm
12:25 PM 69.3°F20.7°C 46.3°F7.9°C 44% 7.2 mph NE11.6 kmh NE 14.3 mph23.0 kmh 30.93 in1047.4 mb 0.00 in0.0 mm 0.00 in0.0 mm 0.00 in0.0 mm
12:30 PM 68.7°F20.4°C 45.2°F7.3°C 43% 4.5 mph NE7.2 kmh NE 15.7 mph25.3 kmh 30.93 in1047.4 mb 0.00 in0.0 mm 0.00 in0.0 mm 0.00 in0.0 mm
12:35 PM 68.9°F20.5°C 46.0°F7.8°C 44% 8.5 mph NE13.7 kmh NE 15.7 mph25.3 kmh 30.92 in1047.1 mb 0.00 in0.0 mm 0.00 in0.0 mm 0.00 in0.0 mm
12:40 PM 68.9°F20.5°C 46.0°F7.8°C 44% Calm Calm 13.0 mph20.9 kmh 30.92 in1047.1 mb 0.00 in0.0 mm 0.00 in0.0 mm 0.00 in0.0 mm
12:45 PM 69.3°F20.7°C 46.3°F7.9°C 44% 4.5 mph NE7.2 kmh NE 13.0 mph20.9 kmh 30.92 in1047.1 mb 0.00 in0.0 mm 0.00 in0.0 mm 0.00 in0.0 mm
12:50 PM 69.4°F20.8°C 45.9°F7.7°C 43% 6.7 mph NE10.8 kmh NE 13.0 mph20.9 kmh 30.92 in1047.1 mb 0.00 in0.0 mm 0.00 in0.0 mm 0.00 in0.0 mm
12:55 PM 69.6°F20.9°C 46.0°F7.8°C 43% Calm Calm 10.7 mph17.2 kmh 30.92 in1047.1 mb 0.00 in0.0 mm 0.00 in0.0 mm 0.00 in0.0 mm
01:00 PM 70.2°F21.2°C 46.5°F8.1°C 43% 8.5 mph NE13.7 kmh NE 10.7 mph17.2 kmh 30.92 in1047.1 mb 0.00 in0.0 mm 0.00 in0.0 mm 0.00 in0.0 mm
01:05 PM 70.0°F21.1°C 45.8°F7.7°C 42% 3.6 mph NE5.8 kmh NE 11.4 mph18.3 kmh 30.92 in1047.1 mb 0.00 in0.0 mm 0.00 in0.0 mm 0.00 in0.0 mm
01:10 PM 70.2°F21.2°C 46.5°F8.1°C 43% 2.0 mph NNE3.2 kmh NNE 11.4 mph18.3 kmh 30.92 in1047.1 mb 0.00 in0.0 mm 0.00 in0.0 mm 0.00 in0.0 mm
01:15 PM 70.3°F21.3°C 46.1°F7.8°C 42% 2.0 mph NE3.2 kmh NE 11.4 mph18.3 kmh 30.92 in1047.1 mb 0.00 in0.0 mm 0.00 in0.0 mm 0.00 in0.0 mm
01:20 PM 70.3°F21.3°C 46.1°F7.8°C 42% 7.6 mph NE12.2 kmh NE 12.1 mph19.5 kmh 30.92 in1047.1 mb 0.00 in0.0 mm 0.00 in0.0 mm 0.00 in0.0 mm
01:25 PM 70.2°F21.2°C 45.3°F7.4°C 41% 6.7 mph NE10.8 kmh NE 14.5 mph23.3 kmh 30.92 in1047.1 mb 0.00 in0.0 mm 0.00 in0.0 mm 0.00 in0.0 mm
01:30 PM 70.3°F21.3°C 45.5°F7.5°C 40% 4.3 mph NNE6.9 kmh NNE 15.2 mph24.5 kmh 30.91 in1046.7 mb 0.00 in0.0 mm 0.00 in0.0 mm 0.00 in0.0 mm
01:35 PM 70.5°F21.4°C 45.7°F7.6°C 41% 10.3 mph NNE16.6 kmh NNE 15.2 mph24.5 kmh 30.91 in1046.7 mb 0.00 in0.0 mm 0.00 in0.0 mm 0.00 in0.0 mm
01:40 PM 70.3°F21.3°C 46.1°F7.8°C 42% 12.3 mph NE19.8 kmh NE 14.3 mph23.0 kmh 30.91 in1046.7 mb 0.00 in0.0 mm 0.00 in0.0 mm 0.00 in0.0 mm
01:45 PM 70.0°F21.1°C 45.2°F7.3°C 41% 9.2 mph NE14.8 kmh NE 13.0 mph20.9 kmh 30.91 in1046.7 mb 0.00 in0.0 mm 0.00 in0.0 mm 0.00 in0.0 mm
01:50 PM 70.0°F21.1°C 44.6°F7.0°C 40% 5.4 mph NE8.7 kmh NE 15.4 mph24.8 kmh 30.91 in1046.7 mb 0.00 in0.0 mm 0.00 in0.0 mm 0.00 in0.0 mm
01:55 PM 70.0°F21.1°C 44.6°F7.0°C 40% 10.3 mph NE16.6 kmh NE 16.3 mph26.2 kmh 30.92 in1047.1 mb 0.00 in0.0 mm 0.00 in0.0 mm 0.00 in0.0 mm
02:00 PM 69.6°F20.9°C 44.9°F7.2°C 41% 10.5 mph NE16.9 kmh NE 16.3 mph26.2 kmh 30.91 in1046.7 mb 0.00 in0.0 mm 0.00 in0.0 mm 0.00 in0.0 mm
02:05 PM 70.5°F21.4°C 45.1°F7.3°C 40% 3.1 mph NE5.0 kmh NE 13.4 mph21.6 kmh 30.91 in1046.7 mb 0.00 in0.0 mm 0.00 in0.0 mm 0.00 in0.0 mm
02:10 PM 70.7°F21.5°C 45.2°F7.3°C 40% 3.4 mph NNE5.5 kmh NNE 13.4 mph21.6 kmh 30.91 in1046.7 mb 0.00 in0.0 mm 0.00 in0.0 mm 0.00 in0.0 mm
02:15 PM 70.9°F21.6°C 46.0°F7.8°C 41% 6.3 mph NE10.1 kmh NE 13.6 mph21.9 kmh 30.91 in1046.7 mb 0.00 in0.0 mm 0.00 in0.0 mm 0.00 in0.0 mm
02:20 PM 70.5°F21.4°C 45.1°F7.3°C 40% 1.8 mph NNE2.9 kmh NNE 14.3 mph23.0 kmh 30.91 in1046.7 mb 0.00 in0.0 mm 0.00 in0.0 mm 0.00 in0.0 mm
02:25 PM 70.7°F21.5°C 45.2°F7.3°C 40% 2.5 mph NNE4.0 kmh NNE 14.3 mph23.0 kmh 30.90 in1046.4 mb 0.00 in0.0 mm 0.00 in0.0 mm 0.00 in0.0 mm
02:30 PM 70.9°F21.6°C 46.0°F7.8°C 41% 7.2 mph NNE11.6 kmh NNE 15.0 mph24.1 kmh 30.90 in1046.4 mb 0.00 in0.0 mm 0.00 in0.0 mm 0.00 in0.0 mm
02:35 PM 71.2°F21.8°C 45.0°F7.2°C 39% 8.7 mph NE14.0 kmh NE 15.2 mph24.5 kmh 30.90 in1046.4 mb 0.00 in0.0 mm 0.00 in0.0 mm 0.00 in0.0 mm
02:40 PM 70.9°F21.6°C 45.4°F7.4°C 40% 7.8 mph NE12.6 kmh NE 15.2 mph24.5 kmh 30.90 in1046.4 mb 0.00 in0.0 mm 0.00 in0.0 mm 0.00 in0.0 mm
02:45 PM 70.7°F21.5°C 45.2°F7.3°C 40% 1.8 mph NE2.9 kmh NE 17.2 mph27.7 kmh 30.90 in1046.4 mb 0.00 in0.0 mm 0.00 in0.0 mm 0.00 in0.0 mm
02:50 PM 71.4°F21.9°C 45.9°F7.7°C 40% 3.4 mph NE5.5 kmh NE 17.2 mph27.7 kmh 30.89 in1046.1 mb 0.00 in0.0 mm 0.00 in0.0 mm 0.00 in0.0 mm
02:55 PM 71.4°F21.9°C 45.9°F7.7°C 40% 2.2 mph NNE3.5 kmh NNE 14.1 mph22.7 kmh 30.89 in1046.1 mb 0.00 in0.0 mm 0.00 in0.0 mm 0.00 in0.0 mm
03:00 PM 71.2°F21.8°C 45.0°F7.2°C 39% 11.9 mph NE19.2 kmh NE 17.9 mph28.8 kmh 30.89 in1046.1 mb 0.00 in0.0 mm 0.00 in0.0 mm 0.00 in0.0 mm
03:05 PM 70.9°F21.6°C 44.7°F7.1°C 39% 8.3 mph NE13.4 kmh NE 17.9 mph28.8 kmh 30.89 in1046.1 mb 0.00 in0.0 mm 0.00 in0.0 mm 0.00 in0.0 mm
03:10 PM 70.3°F21.3°C 44.9°F7.2°C 40% 1.6 mph NE2.6 kmh NE 16.1 mph25.9 kmh 30.89 in1046.1 mb 0.00 in0.0 mm 0.00 in0.0 mm 0.00 in0.0 mm
03:15 PM 70.3°F21.3°C 44.9°F7.2°C 40% 2.7 mph NE4.3 kmh NE 14.5 mph23.3 kmh 30.89 in1046.1 mb 0.00 in0.0 mm 0.00 in0.0 mm 0.00 in0.0 mm
03:20 PM 70.9°F21.6°C 45.4°F7.4°C 40% 12.8 mph NE20.6 kmh NE 14.5 mph23.3 kmh 30.89 in1046.1 mb 0.00 in0.0 mm 0.00 in0.0 mm 0.00 in0.0 mm
03:25 PM 71.2°F21.8°C 45.0°F7.2°C 39% 6.0 mph NNE9.7 kmh NNE 13.4 mph21.6 kmh 30.89 in1046.1 mb 0.00 in0.0 mm 0.00 in0.0 mm 0.00 in0.0 mm
03:30 PM 71.2°F21.8°C 44.2°F6.8°C 38% 11.9 mph NNE19.2 kmh NNE 13.6 mph21.9 kmh 30.89 in1046.1 mb 0.00 in0.0 mm 0.00 in0.0 mm 0.00 in0.0 mm
03:35 PM 70.9°F21.6°C 44.7°F7.1°C 39% 15.2 mph NNE24.5 kmh NNE 15.2 mph24.5 kmh 30.89 in1046.1 mb 0.00 in0.0 mm 0.00 in0.0 mm 0.00 in0.0 mm
03:40 PM 71.2°F21.8°C 45.0°F7.2°C 39% 4.7 mph NNE7.6 kmh NNE 15.2 mph24.5 kmh 30.89 in1046.1 mb 0.00 in0.0 mm 0.00 in0.0 mm 0.00 in0.0 mm
03:45 PM 70.9°F21.6°C 44.7°F7.1°C 39% 6.0 mph NNE9.7 kmh NNE 15.2 mph24.5 kmh 30.89 in1046.1 mb 0.00 in0.0 mm 0.00 in0.0 mm 0.00 in0.0 mm
03:50 PM 70.7°F21.5°C 44.5°F6.9°C 39% 8.9 mph NNE14.3 kmh NNE 14.3 mph23.0 kmh 30.88 in1045.7 mb 0.00 in0.0 mm 0.00 in0.0 mm 0.00 in0.0 mm
03:55 PM 70.3°F21.3°C 45.5°F7.5°C 41% 9.2 mph NNE14.8 kmh NNE 14.3 mph23.0 kmh 30.88 in1045.7 mb 0.00 in0.0 mm 0.00 in0.0 mm 0.00 in0.0 mm
04:00 PM 70.9°F21.6°C 45.4°F7.4°C 40% 12.1 mph NNE19.5 kmh NNE 13.0 mph20.9 kmh 30.89 in1046.1 mb 0.00 in0.0 mm 0.00 in0.0 mm 0.00 in0.0 mm
04:05 PM 70.9°F21.6°C 46.0°F7.8°C 41% 2.0 mph NNE3.2 kmh NNE 13.0 mph20.9 kmh 30.89 in1046.1 mb 0.00 in0.0 mm 0.00 in0.0 mm 0.00 in0.0 mm
04:10 PM 71.1°F21.7°C 45.6°F7.6°C 40% 4.0 mph NE6.4 kmh NE 10.3 mph16.6 kmh 30.88 in1045.7 mb 0.00 in0.0 mm 0.00 in0.0 mm 0.00 in0.0 mm
04:15 PM 70.7°F21.5°C 45.8°F7.7°C 41% 4.7 mph NE7.6 kmh NE 13.4 mph21.6 kmh 30.89 in1046.1 mb 0.00 in0.0 mm 0.00 in0.0 mm 0.00 in0.0 mm
04:20 PM 70.5°F21.4°C 46.3°F7.9°C 42% 3.8 mph NE6.1 kmh NE 13.4 mph21.6 kmh 30.88 in1045.7 mb 0.00 in0.0 mm 0.00 in0.0 mm 0.00 in0.0 mm
04:25 PM 70.5°F21.4°C 45.7°F7.6°C 41% 5.8 mph NE9.3 kmh NE 14.3 mph23.0 kmh 30.88 in1045.7 mb 0.00 in0.0 mm 0.00 in0.0 mm 0.00 in0.0 mm
04:30 PM 70.2°F21.2°C 45.3°F7.4°C 41% 2.2 mph NNE3.5 kmh NNE 14.3 mph23.0 kmh 30.88 in1045.7 mb 0.00 in0.0 mm 0.00 in0.0 mm 0.00 in0.0 mm
04:35 PM 70.9°F21.6°C 46.0°F7.8°C 41% 2.0 mph NNE3.2 kmh NNE 13.0 mph20.9 kmh 30.88 in1045.7 mb 0.00 in0.0 mm 0.00 in0.0 mm 0.00 in0.0 mm
04:40 PM 70.7°F21.5°C 45.8°F7.7°C 41% 5.4 mph NNE8.7 kmh NNE 13.0 mph20.9 kmh 30.88 in1045.7 mb 0.00 in0.0 mm 0.00 in0.0 mm 0.00 in0.0 mm
04:45 PM 70.5°F21.4°C 45.7°F7.6°C 41% 3.6 mph NE5.8 kmh NE 13.2 mph21.2 kmh 30.88 in1045.7 mb 0.00 in0.0 mm 0.00 in0.0 mm 0.00 in0.0 mm
04:50 PM 70.3°F21.3°C 44.9°F7.2°C 40% 1.3 mph NE2.1 kmh NE 13.2 mph21.2 kmh 30.88 in1045.7 mb 0.00 in0.0 mm 0.00 in0.0 mm 0.00 in0.0 mm
04:55 PM 70.5°F21.4°C 45.7°F7.6°C 41% 4.9 mph NE7.9 kmh NE 11.9 mph19.2 kmh 30.88 in1045.7 mb 0.00 in0.0 mm 0.00 in0.0 mm 0.00 in0.0 mm
05:00 PM 70.3°F21.3°C 44.9°F7.2°C 40% 6.0 mph NE9.7 kmh NE 12.1 mph19.5 kmh 30.88 in1045.7 mb 0.00 in0.0 mm 0.00 in0.0 mm 0.00 in0.0 mm
05:05 PM 70.3°F21.3°C 46.1°F7.8°C 42% 11.9 mph NE19.2 kmh NE 12.1 mph19.5 kmh 30.88 in1045.7 mb 0.00 in0.0 mm 0.00 in0.0 mm 0.00 in0.0 mm
05:15 PM 69.6°F20.9°C 45.4°F7.4°C 42% 3.1 mph NE5.0 kmh NE 11.9 mph19.2 kmh 30.88 in1045.7 mb 0.00 in0.0 mm 0.00 in0.0 mm 0.00 in0.0 mm
05:20 PM 70.0°F21.1°C 45.8°F7.7°C 42% Calm Calm 10.3 mph16.6 kmh 30.87 in1045.4 mb 0.00 in0.0 mm 0.00 in0.0 mm 0.00 in0.0 mm
05:25 PM 70.5°F21.4°C 45.7°F7.6°C 41% 2.5 mph NNE4.0 kmh NNE 8.3 mph13.4 kmh 30.88 in1045.7 mb 0.00 in0.0 mm 0.00 in0.0 mm 0.00 in0.0 mm
05:30 PM 70.5°F21.4°C 46.3°F7.9°C 42% 3.8 mph NNE6.1 kmh NNE 8.3 mph13.4 kmh 30.88 in1045.7 mb 0.00 in0.0 mm 0.00 in0.0 mm 0.00 in0.0 mm
05:35 PM 70.0°F21.1°C 44.6°F7.0°C 40% 10.3 mph NE16.6 kmh NE 10.3 mph16.6 kmh 30.88 in1045.7 mb 0.00 in0.0 mm 0.00 in0.0 mm 0.00 in0.0 mm
05:40 PM 69.8°F21.0°C 44.4°F6.9°C 40% 11.0 mph NE17.7 kmh NE 13.4 mph21.6 kmh 30.87 in1045.4 mb 0.00 in0.0 mm 0.00 in0.0 mm 0.00 in0.0 mm
05:45 PM 69.6°F20.9°C 44.9°F7.2°C 41% 2.9 mph NE4.7 kmh NE 13.4 mph21.6 kmh 30.87 in1045.4 mb 0.00 in0.0 mm 0.00 in0.0 mm 0.00 in0.0 mm
05:50 PM 69.8°F21.0°C 45.6°F7.6°C 42% 6.3 mph NNE10.1 kmh NNE 11.6 mph18.7 kmh 30.87 in1045.4 mb 0.00 in0.0 mm 0.00 in0.0 mm 0.00 in0.0 mm
05:55 PM 70.0°F21.1°C 45.8°F7.7°C 42% 6.3 mph NNE10.1 kmh NNE 7.6 mph12.2 kmh 30.87 in1045.4 mb 0.00 in0.0 mm 0.00 in0.0 mm 0.00 in0.0 mm
06:00 PM 69.6°F20.9°C 45.4°F7.4°C 42% 1.6 mph NE2.6 kmh NE 8.7 mph14.0 kmh 30.87 in1045.4 mb 0.00 in0.0 mm 0.00 in0.0 mm 0.00 in0.0 mm
06:05 PM 69.6°F20.9°C 45.4°F7.4°C 42% Calm Calm 8.7 mph14.0 kmh 30.87 in1045.4 mb 0.00 in0.0 mm 0.00 in0.0 mm 0.00 in0.0 mm
06:10 PM 69.4°F20.8°C 44.7°F7.1°C 41% 3.8 mph NE6.1 kmh NE 8.9 mph14.3 kmh 30.87 in1045.4 mb 0.00 in0.0 mm 0.00 in0.0 mm 0.00 in0.0 mm
06:15 PM 69.1°F20.6°C 44.4°F6.9°C 41% 4.0 mph NE6.4 kmh NE 10.1 mph16.3 kmh 30.87 in1045.4 mb 0.00 in0.0 mm 0.00 in0.0 mm 0.00 in0.0 mm
06:20 PM 69.1°F20.6°C 44.4°F6.9°C 41% 4.0 mph NNE6.4 kmh NNE 10.5 mph16.9 kmh 30.87 in1045.4 mb 0.00 in0.0 mm 0.00 in0.0 mm 0.00 in0.0 mm
06:25 PM 68.5°F20.3°C 44.5°F6.9°C 42% 3.6 mph NE5.8 kmh NE 10.5 mph16.9 kmh 30.87 in1045.4 mb 0.00 in0.0 mm 0.00 in0.0 mm 0.00 in0.0 mm
06:30 PM 68.4°F20.2°C 44.3°F6.8°C 42% 5.1 mph NNE8.2 kmh NNE 8.9 mph14.3 kmh 30.87 in1045.4 mb 0.00 in0.0 mm 0.00 in0.0 mm 0.00 in0.0 mm
06:35 PM 68.2°F20.1°C 44.2°F6.8°C 42% 4.3 mph NNE6.9 kmh NNE 8.7 mph14.0 kmh 30.87 in1045.4 mb 0.00 in0.0 mm 0.00 in0.0 mm 0.00 in0.0 mm
06:40 PM 68.0°F20.0°C 44.6°F7.0°C 43% 5.8 mph NNE9.3 kmh NNE 6.5 mph10.5 kmh 30.87 in1045.4 mb 0.00 in0.0 mm 0.00 in0.0 mm 0.00 in0.0 mm
06:45 PM 67.8°F19.9°C 44.4°F6.9°C 43% 10.3 mph NE16.6 kmh NE 10.7 mph17.2 kmh 30.87 in1045.4 mb 0.00 in0.0 mm 0.00 in0.0 mm 0.00 in0.0 mm
06:50 PM 67.3°F19.6°C 43.9°F6.6°C 43% 4.5 mph NE7.2 kmh NE 10.7 mph17.2 kmh 30.87 in1045.4 mb 0.00 in0.0 mm 0.00 in0.0 mm 0.00 in0.0 mm
06:55 PM 67.3°F19.6°C 44.5°F6.9°C 44% Calm Calm 8.5 mph13.7 kmh 30.87 in1045.4 mb 0.00 in0.0 mm 0.00 in0.0 mm 0.00 in0.0 mm
07:00 PM 67.1°F19.5°C 44.4°F6.9°C 44% 2.9 mph NNE4.7 kmh NNE 6.5 mph10.5 kmh 30.88 in1045.7 mb 0.00 in0.0 mm 0.00 in0.0 mm 0.00 in0.0 mm
07:05 PM 66.9°F19.4°C 44.8°F7.1°C 45% Calm Calm 6.5 mph10.5 kmh 30.87 in1045.4 mb 0.00 in0.0 mm 0.00 in0.0 mm 0.00 in0.0 mm
07:10 PM 66.7°F19.3°C 44.6°F7.0°C 45% 4.5 mph NNE7.2 kmh NNE 6.9 mph11.1 kmh 30.88 in1045.7 mb 0.00 in0.0 mm 0.00 in0.0 mm 0.00 in0.0 mm
07:15 PM 66.6°F19.2°C 44.5°F6.9°C 45% 2.2 mph NNE3.5 kmh NNE 6.9 mph11.1 kmh 30.87 in1045.4 mb 0.00 in0.0 mm 0.00 in0.0 mm 0.00 in0.0 mm
07:20 PM 66.4°F19.1°C 44.9°F7.2°C 46% Calm Calm 5.8 mph9.3 kmh 30.88 in1045.7 mb 0.00 in0.0 mm 0.00 in0.0 mm 0.00 in0.0 mm
07:25 PM 66.0°F18.9°C 46.3°F7.9°C 49% 2.0 mph W3.2 kmh W 3.1 mph5.0 kmh 30.88 in1045.7 mb 0.00 in0.0 mm 0.00 in0.0 mm 0.00 in0.0 mm
07:30 PM 65.1°F18.4°C 46.0°F7.8°C 50% 2.0 mph SW3.2 kmh SW 3.1 mph5.0 kmh 30.88 in1045.7 mb 0.00 in0.0 mm 0.00 in0.0 mm 0.00 in0.0 mm
07:35 PM 64.2°F17.9°C 46.1°F7.8°C 52% 1.6 mph SW2.6 kmh SW 3.8 mph6.1 kmh 30.88 in1045.7 mb 0.00 in0.0 mm 0.00 in0.0 mm 0.00 in0.0 mm
07:40 PM 63.3°F17.4°C 46.3°F7.9°C 54% 2.5 mph SW4.0 kmh SW 4.0 mph6.4 kmh 30.87 in1045.4 mb 0.00 in0.0 mm 0.00 in0.0 mm 0.00 in0.0 mm
07:45 PM 62.8°F17.1°C 45.8°F7.7°C 54% 4.3 mph SW6.9 kmh SW 4.3 mph6.9 kmh 30.87 in1045.4 mb 0.00 in0.0 mm 0.00 in0.0 mm 0.00 in0.0 mm
07:50 PM 62.4°F16.9°C 46.0°F7.8°C 55% 2.2 mph SW3.5 kmh SW 4.3 mph6.9 kmh 30.88 in1045.7 mb 0.00 in0.0 mm 0.00 in0.0 mm 0.00 in0.0 mm
07:55 PM 61.9°F16.6°C 46.5°F8.1°C 57% 2.5 mph SW4.0 kmh SW 4.3 mph6.9 kmh 30.88 in1045.7 mb 0.00 in0.0 mm 0.00 in0.0 mm 0.00 in0.0 mm
08:00 PM 61.3°F16.3°C 46.0°F7.8°C 57% 2.5 mph SW4.0 kmh SW 3.1 mph5.0 kmh 30.88 in1045.7 mb 0.00 in0.0 mm 0.00 in0.0 mm 0.00 in0.0 mm
08:05 PM 61.0°F16.1°C 46.1°F7.8°C 58% 3.1 mph SW5.0 kmh SW 4.3 mph6.9 kmh 30.88 in1045.7 mb 0.00 in0.0 mm 0.00 in0.0 mm 0.00 in0.0 mm
08:10 PM 60.6°F15.9°C 46.3°F7.9°C 59% 1.6 mph SW2.6 kmh SW 4.3 mph6.9 kmh 30.88 in1045.7 mb 0.00 in0.0 mm 0.00 in0.0 mm 0.00 in0.0 mm
08:15 PM 60.4°F15.8°C 46.6°F8.1°C 60% 2.2 mph SW3.5 kmh SW 3.8 mph6.1 kmh 30.89 in1046.1 mb 0.00 in0.0 mm 0.00 in0.0 mm 0.00 in0.0 mm
08:20 PM 60.1°F15.6°C 46.2°F7.9°C 60% 2.5 mph SW4.0 kmh SW 2.9 mph4.7 kmh 30.89 in1046.1 mb 0.00 in0.0 mm 0.00 in0.0 mm 0.00 in0.0 mm
08:25 PM 59.7°F15.4°C 45.9°F7.7°C 60% 2.2 mph SW3.5 kmh SW 3.6 mph5.8 kmh 30.89 in1046.1 mb 0.00 in0.0 mm 0.00 in0.0 mm 0.00 in0.0 mm
08:30 PM 59.5°F15.3°C 46.1°F7.8°C 61% Calm Calm 3.6 mph5.8 kmh 30.89 in1046.1 mb 0.00 in0.0 mm 0.00 in0.0 mm 0.00 in0.0 mm
08:35 PM 59.4°F15.2°C 45.9°F7.7°C 61% 2.9 mph SW4.7 kmh SW 4.0 mph6.4 kmh 30.89 in1046.1 mb 0.00 in0.0 mm 0.00 in0.0 mm 0.00 in0.0 mm
08:40 PM 59.4°F15.2°C 45.9°F7.7°C 61% 3.4 mph SW5.5 kmh SW 4.0 mph6.4 kmh 30.89 in1046.1 mb 0.00 in0.0 mm 0.00 in0.0 mm 0.00 in0.0 mm
08:45 PM 59.2°F15.1°C 45.7°F7.6°C 61% 3.1 mph SW5.0 kmh SW 4.0 mph6.4 kmh 30.89 in1046.1 mb 0.00 in0.0 mm 0.00 in0.0 mm 0.00 in0.0 mm
08:50 PM 59.0°F15.0°C 46.0°F7.8°C 62% 1.6 mph SW2.6 kmh SW 3.8 mph6.1 kmh 30.89 in1046.1 mb 0.00 in0.0 mm 0.00 in0.0 mm 0.00 in0.0 mm
08:55 PM 58.8°F14.9°C 45.8°F7.7°C 62% 5.1 mph SW8.2 kmh SW 5.4 mph8.7 kmh 30.89 in1046.1 mb 0.00 in0.0 mm 0.00 in0.0 mm 0.00 in0.0 mm
09:00 PM 58.6°F14.8°C 46.0°F7.8°C 63% 5.1 mph SW8.2 kmh SW 6.5 mph10.5 kmh 30.89 in1046.1 mb 0.00 in0.0 mm 0.00 in0.0 mm 0.00 in0.0 mm
09:05 PM 58.5°F14.7°C 45.9°F7.7°C 63% 4.3 mph SW6.9 kmh SW 6.5 mph10.5 kmh 30.89 in1046.1 mb 0.00 in0.0 mm 0.00 in0.0 mm 0.00 in0.0 mm
09:10 PM 58.5°F14.7°C 45.9°F7.7°C 63% 3.4 mph SW5.5 kmh SW 5.1 mph8.2 kmh 30.89 in1046.1 mb 0.00 in0.0 mm 0.00 in0.0 mm 0.00 in0.0 mm
09:15 PM 58.3°F14.6°C 45.7°F7.6°C 63% 3.1 mph SW5.0 kmh SW 4.7 mph7.6 kmh 30.89 in1046.1 mb 0.00 in0.0 mm 0.00 in0.0 mm 0.00 in0.0 mm
09:20 PM 58.1°F14.5°C 45.5°F7.5°C 63% 2.9 mph SW4.7 kmh SW 4.7 mph7.6 kmh 30.89 in1046.1 mb 0.00 in0.0 mm 0.00 in0.0 mm 0.00 in0.0 mm
09:25 PM 57.9°F14.4°C 45.4°F7.4°C 63% 4.9 mph SW7.9 kmh SW 5.8 mph9.3 kmh 30.89 in1046.1 mb 0.00 in0.0 mm 0.00 in0.0 mm 0.00 in0.0 mm
09:30 PM 57.9°F14.4°C 45.4°F7.4°C 63% 3.4 mph SW5.5 kmh SW 6.7 mph10.8 kmh 30.89 in1046.1 mb 0.00 in0.0 mm 0.00 in0.0 mm 0.00 in0.0 mm
09:35 PM 58.1°F14.5°C 45.1°F7.3°C 62% 2.0 mph SW3.2 kmh SW 6.7 mph10.8 kmh 30.89 in1046.1 mb 0.00 in0.0 mm 0.00 in0.0 mm 0.00 in0.0 mm
09:40 PM 58.5°F14.7°C 45.5°F7.5°C 62% 2.5 mph SW4.0 kmh SW 4.5 mph7.2 kmh 30.89 in1046.1 mb 0.00 in0.0 mm 0.00 in0.0 mm 0.00 in0.0 mm
09:45 PM 58.3°F14.6°C 45.3°F7.4°C 62% 3.4 mph SW5.5 kmh SW 3.8 mph6.1 kmh 30.89 in1046.1 mb 0.00 in0.0 mm 0.00 in0.0 mm 0.00 in0.0 mm
09:50 PM 58.3°F14.6°C 45.3°F7.4°C 62% 1.6 mph SW2.6 kmh SW 3.8 mph6.1 kmh 30.89 in1046.1 mb 0.00 in0.0 mm 0.00 in0.0 mm 0.00 in0.0 mm
09:55 PM 58.3°F14.6°C 45.3°F7.4°C 62% 2.0 mph SW3.2 kmh SW 4.5 mph7.2 kmh 30.90 in1046.4 mb 0.00 in0.0 mm 0.00 in0.0 mm 0.00 in0.0 mm
10:00 PM 58.8°F14.9°C 45.4°F7.4°C 61% 2.2 mph SW3.5 kmh SW 4.5 mph7.2 kmh 30.89 in1046.1 mb 0.00 in0.0 mm 0.00 in0.0 mm 0.00 in0.0 mm
10:05 PM 59.0°F15.0°C 45.1°F7.3°C 60% Calm Calm 3.4 mph5.5 kmh 30.89 in1046.1 mb 0.00 in0.0 mm 0.00 in0.0 mm 0.00 in0.0 mm
10:10 PM 59.5°F15.3°C 45.7°F7.6°C 60% 5.4 mph SW8.7 kmh SW 5.4 mph8.7 kmh 30.90 in1046.4 mb 0.00 in0.0 mm 0.00 in0.0 mm 0.00 in0.0 mm
10:15 PM 59.5°F15.3°C 45.2°F7.3°C 59% 3.1 mph SW5.0 kmh SW 5.4 mph8.7 kmh 30.90 in1046.4 mb 0.00 in0.0 mm 0.00 in0.0 mm 0.00 in0.0 mm
10:20 PM 59.5°F15.3°C 45.2°F7.3°C 59% 3.6 mph SW5.8 kmh SW 5.4 mph8.7 kmh 30.90 in1046.4 mb 0.00 in0.0 mm 0.00 in0.0 mm 0.00 in0.0 mm
10:25 PM 60.1°F15.6°C 45.2°F7.3°C 58% 3.6 mph SW5.8 kmh SW 6.3 mph10.1 kmh 30.90 in1046.4 mb 0.00 in0.0 mm 0.00 in0.0 mm 0.00 in0.0 mm
10:30 PM 60.4°F15.8°C 45.6°F7.6°C 58% 4.3 mph SSW6.9 kmh SSW 6.3 mph10.1 kmh 30.90 in1046.4 mb 0.00 in0.0 mm 0.00 in0.0 mm 0.00 in0.0 mm
10:35 PM 60.6°F15.9°C 45.8°F7.7°C 58% 2.0 mph S3.2 kmh S 6.0 mph9.7 kmh 30.90 in1046.4 mb 0.00 in0.0 mm 0.00 in0.0 mm 0.00 in0.0 mm
10:40 PM 60.6°F15.9°C 45.8°F7.7°C 58% 1.1 mph S1.8 kmh S 4.9 mph7.9 kmh 30.90 in1046.4 mb 0.00 in0.0 mm 0.00 in0.0 mm 0.00 in0.0 mm
10:45 PM 60.4°F15.8°C 45.6°F7.6°C 58% 2.5 mph SW4.0 kmh SW 4.7 mph7.6 kmh 30.90 in1046.4 mb 0.00 in0.0 mm 0.00 in0.0 mm 0.00 in0.0 mm
10:50 PM 60.3°F15.7°C 45.4°F7.4°C 58% 1.6 mph SW2.6 kmh SW 6.0 mph9.7 kmh 30.90 in1046.4 mb 0.00 in0.0 mm 0.00 in0.0 mm 0.00 in0.0 mm
10:55 PM 60.1°F15.6°C 45.7°F7.6°C 59% 2.5 mph SSW4.0 kmh SSW 6.0 mph9.7 kmh 30.90 in1046.4 mb 0.00 in0.0 mm 0.00 in0.0 mm 0.00 in0.0 mm
11:00 PM 60.1°F15.6°C 45.7°F7.6°C 59% Calm Calm 5.8 mph9.3 kmh 30.90 in1046.4 mb 0.00 in0.0 mm 0.00 in0.0 mm 0.00 in0.0 mm
11:05 PM 59.7°F15.4°C 45.4°F7.4°C 59% Calm Calm 5.8 mph9.3 kmh 30.90 in1046.4 mb 0.00 in0.0 mm 0.00 in0.0 mm 0.00 in0.0 mm
11:10 PM 59.7°F15.4°C 45.4°F7.4°C 59% 2.0 mph SSW3.2 kmh SSW 5.4 mph8.7 kmh 30.90 in1046.4 mb 0.00 in0.0 mm 0.00 in0.0 mm 0.00 in0.0 mm
11:15 PM 59.7°F15.4°C 45.4°F7.4°C 59% 2.5 mph SSW4.0 kmh SSW 7.6 mph12.2 kmh 30.90 in1046.4 mb 0.00 in0.0 mm 0.00 in0.0 mm 0.00 in0.0 mm
11:20 PM 60.1°F15.6°C 45.2°F7.3°C 58% 2.0 mph S3.2 kmh S 7.6 mph12.2 kmh 30.90 in1046.4 mb 0.00 in0.0 mm 0.00 in0.0 mm 0.00 in0.0 mm
11:25 PM 60.1°F15.6°C 45.7°F7.6°C 59% 2.5 mph SSW4.0 kmh SSW 6.7 mph10.8 kmh 30.89 in1046.1 mb 0.00 in0.0 mm 0.00 in0.0 mm 0.00 in0.0 mm
11:30 PM 59.9°F15.5°C 45.6°F7.6°C 59% 3.8 mph SW6.1 kmh SW 6.5 mph10.5 kmh 30.89 in1046.1 mb 0.00 in0.0 mm 0.00 in0.0 mm 0.00 in0.0 mm
11:35 PM 59.7°F15.4°C 44.9°F7.2°C 58% Calm Calm 6.5 mph10.5 kmh 30.89 in1046.1 mb 0.00 in0.0 mm 0.00 in0.0 mm 0.00 in0.0 mm
11:40 PM 59.7°F15.4°C 44.9°F7.2°C 58% 2.5 mph SW4.0 kmh SW 4.5 mph7.2 kmh 30.89 in1046.1 mb 0.00 in0.0 mm 0.00 in0.0 mm 0.00 in0.0 mm
11:45 PM 59.9°F15.5°C 44.6°F7.0°C 57% 2.9 mph SSW4.7 kmh SSW 3.6 mph5.8 kmh 30.89 in1046.1 mb 0.00 in0.0 mm 0.00 in0.0 mm 0.00 in0.0 mm
11:50 PM 60.1°F15.6°C 44.3°F6.8°C 56% 1.6 mph SSW2.6 kmh SSW 5.6 mph9.0 kmh 30.89 in1046.1 mb 0.00 in0.0 mm 0.00 in0.0 mm 0.00 in0.0 mm
11:55 PM 60.3°F15.7°C 44.5°F6.9°C 56% 0.9 mph S1.4 kmh S 5.6 mph9.0 kmh 30.89 in1046.1 mb 0.00 in0.0 mm 0.00 in0.0 mm 0.00 in0.0 mm